Time;durP1;ratioP1;P1;durP2;ratioP2;P2;SDS_P1;SDS_P2;PMS_P1;PMS_P2;Temp;Humidity;BMP_temperature;BMP_pressure;BME280_temperature;BME280_humidity;BME280_pressure;Samples;Min_cycle;Max_cycle;Signal;HPM_P1;HPM_P2
2021/11/16 00:01:13;;;;;;;;;;;;;;;13.52;100.00;99910.38;5051917;28;20339;-84
2021/11/16 00:03:41;;;;;;;;;;;;;;;13.57;100.00;99915.50;5067989;28;19924;-84
2021/11/16 00:06:08;;;;;;;;;;;;;;;13.55;100.00;99917.97;5052708;28;19925;-84
2021/11/16 00:08:36;;;;;;;;;;;;;;;13.39;100.00;99917.75;5067947;28;19925;-84
2021/11/16 00:11:04;;;;;;;;;;;;;;;13.06;100.00;99923.41;5068094;28;19925;-84
2021/11/16 00:13:32;;;;;;;;;;;;;;;13.23;100.00;99928.00;5034909;28;19968;-84
2021/11/16 00:15:59;;;;;;;;;;;;;;;13.20;100.00;99931.66;5051636;28;20170;-83
2021/11/16 00:18:30;;;;;;;;;;;;;;;13.22;100.00;99937.66;5051504;28;20380;-83
2021/11/16 00:20:58;;;;;;;;;;;;;;;13.04;100.00;99937.09;5051444;28;19924;-84
2021/11/16 00:23:33;;;;;;;;;;;;;;;12.73;100.00;99931.41;5084763;28;19925;-84
2021/11/16 00:26:01;;;;;;;;;;;;;;;13.01;100.00;99932.31;5068187;28;19931;-83
2021/11/16 00:28:29;;;;;;;;;;;;;;;12.55;100.00;99925.19;5069603;28;20011;-83
2021/11/16 00:30:56;;;;;;;;;;;;;;;12.54;100.00;99934.78;5071895;28;19970;-83
2021/11/16 00:33:26;;;;;;;;;;;;;;;12.47;100.00;99934.88;5072120;28;19931;-83
2021/11/16 00:35:54;;;;;;;;;;;;;;;12.94;100.00;99932.34;5088823;28;20301;-84
2021/11/16 00:38:21;;;;;;;;;;;;;;;13.13;100.00;99924.13;5038830;28;19944;-83
2021/11/16 00:40:49;;;;;;;;;;;;;;;13.36;100.00;99909.41;5038670;28;19924;-84
2021/11/16 00:43:17;;;;;;;;;;;;;;;13.39;100.00;99909.34;5038919;28;19924;-84
2021/11/16 00:45:46;;;;;;;;;;;;;;;13.36;100.00;99903.81;5071651;28;19925;-84
2021/11/16 00:48:15;;;;;;;;;;;;;;;13.25;100.00;99903.13;5055470;28;20292;-84
2021/11/16 00:50:46;;;;;;;;;;;;;;;13.15;100.00;99910.47;5056322;28;19932;-84
2021/11/16 00:53:13;;;;;;;;;;;;;;;13.23;100.00;99908.38;5055125;28;19932;-84
2021/11/16 00:55:40;;;;;;;;;;;;;;;13.54;100.00;99898.72;5038590;28;19971;-83
2021/11/16 00:58:07;;;;;;;;;;;;;;;13.62;100.00;99891.75;5038227;28;20060;-84
2021/11/16 01:00:34;;;;;;;;;;;;;;;13.65;100.00;99886.09;5038637;28;19932;-84
2021/11/16 01:03:01;;;;;;;;;;;;;;;13.91;100.00;99890.09;5054643;28;19925;-84
2021/11/16 01:05:28;;;;;;;;;;;;;;;13.85;100.00;99884.19;5054899;28;19924;-84
2021/11/16 01:07:56;;;;;;;;;;;;;;;13.69;100.00;99872.00;5038189;28;19931;-84
2021/11/16 01:10:23;;;;;;;;;;;;;;;13.84;100.00;99871.34;5054697;28;20010;-84
2021/11/16 01:12:51;;;;;;;;;;;;;;;13.90;100.00;99863.25;5071238;28;19929;-84
2021/11/16 01:15:19;;;;;;;;;;;;;;;13.96;100.00;99858.72;5055904;28;20066;-84
2021/11/16 01:17:47;;;;;;;;;;;;;;;14.04;100.00;99855.34;5054203;28;19925;-84
2021/11/16 01:20:15;;;;;;;;;;;;;;;14.03;100.00;99859.41;5071192;28;19925;-84
2021/11/16 01:22:43;;;;;;;;;;;;;;;13.90;100.00;99854.81;5055782;28;19932;-84
2021/11/16 01:25:10;;;;;;;;;;;;;;;14.02;100.00;99862.63;5054424;28;20338;-84
2021/11/16 01:27:38;;;;;;;;;;;;;;;13.66;100.00;99861.63;5070750;28;19932;-84
2021/11/16 01:30:08;;;;;;;;;;;;;;;13.91;100.00;99857.19;5055443;28;19932;-84
2021/11/16 01:32:41;;;;;;;;;;;;;;;13.87;100.00;99850.81;5054166;28;20311;-84
2021/11/16 01:35:08;;;;;;;;;;;;;;;13.77;100.00;99851.00;5054432;28;19937;-84
2021/11/16 01:37:36;;;;;;;;;;;;;;;13.88;100.00;99852.44;5054213;28;20027;-84
2021/11/16 01:40:05;;;;;;;;;;;;;;;13.93;100.00;99846.31;5036984;28;19943;-84
2021/11/16 01:42:32;;;;;;;;;;;;;;;13.67;100.00;99846.38;5055338;28;19932;-84
2021/11/16 01:45:00;;;;;;;;;;;;;;;13.69;100.00;99841.13;5087401;28;19925;-84
2021/11/16 01:47:26;;;;;;;;;;;;;;;13.83;100.00;99838.88;5055105;28;19924;-84
2021/11/16 01:49:54;;;;;;;;;;;;;;;13.72;100.00;99838.22;5053970;28;20011;-84
2021/11/16 01:52:21;;;;;;;;;;;;;;;13.47;100.00;99834.25;5087172;28;19924;-84
2021/11/16 01:54:48;;;;;;;;;;;;;;;13.36;100.00;99836.44;5037616;28;20346;-84
2021/11/16 01:57:16;;;;;;;;;;;;;;;13.40;100.00;99835.16;5055113;28;19925;-84
2021/11/16 01:59:43;;;;;;;;;;;;;;;13.59;100.00;99836.44;5053825;28;19932;-84
2021/11/16 02:02:10;;;;;;;;;;;;;;;13.82;100.00;99836.47;5053492;28;19932;-84
2021/11/16 02:04:37;;;;;;;;;;;;;;;13.93;100.00;99825.88;5037324;28;19928;-84
2021/11/16 02:07:07;;;;;;;;;;;;;;;13.82;100.00;99826.03;5053736;28;19925;-83
2021/11/16 02:09:34;;;;;;;;;;;;;;;13.51;100.00;99829.38;5037155;28;20023;-84
2021/11/16 02:12:02;;;;;;;;;;;;;;;13.84;100.00;99822.81;5054850;28;19931;-84
2021/11/16 02:14:29;;;;;;;;;;;;;;;13.62;100.00;99815.94;5053448;28;19924;-84
2021/11/16 02:16:57;;;;;;;;;;;;;;;13.92;100.00;99815.81;5036772;28;20300;-84
2021/11/16 02:19:24;;;;;;;;;;;;;;;13.98;100.00;99819.75;5054626;28;19925;-84
2021/11/16 02:21:51;;;;;;;;;;;;;;;13.78;100.00;99822.47;5054668;28;20380;-84
2021/11/16 02:24:19;;;;;;;;;;;;;;;13.77;100.00;99817.28;5036827;28;20411;-84
2021/11/16 02:26:46;;;;;;;;;;;;;;;12.99;100.00;99825.28;5069824;28;20423;-84
2021/11/16 02:29:13;;;;;;;;;;;;;;;13.11;100.00;99821.94;5054261;28;20371;-84
2021/11/16 02:31:40;;;;;;;;;;;;;;;12.74;100.00;99828.41;5069694;28;19925;-84
2021/11/16 02:34:07;;;;;;;;;;;;;;;13.12;100.00;99829.13;5053182;28;19928;-84
2021/11/16 02:36:34;;;;;;;;;;;;;;;13.33;100.00;99828.88;5053182;28;19931;-84
2021/11/16 02:39:04;;;;;;;;;;;;;;;12.87;100.00;99820.25;5036723;28;19974;-84
2021/11/16 02:41:34;;;;;;;;;;;;;;;13.05;100.00;99818.03;5052782;28;19932;-83
2021/11/16 02:44:05;;;;;;;;;;;;;;;13.36;100.00;99811.94;5052945;28;20387;-84
2021/11/16 02:46:33;;;;;;;;;;;;;;;13.21;100.00;99802.16;5036259;28;19952;-84
2021/11/16 02:49:00;;;;;;;;;;;;;;;13.51;100.00;99798.50;5052891;28;19925;-84
2021/11/16 02:51:30;;;;;;;;;;;;;;;13.24;100.00;99794.91;5085419;28;19925;-84
2021/11/16 02:53:58;;;;;;;;;;;;;;;13.12;100.00;99793.47;5053976;28;20448;-84
2021/11/16 02:56:25;;;;;;;;;;;;;;;13.33;100.00;99795.19;5053903;28;20299;-84
2021/11/16 02:58:52;;;;;;;;;;;;;;;13.50;100.00;99786.47;5053765;28;19928;-84
2021/11/16 03:01:20;;;;;;;;;;;;;;;13.50;100.00;99774.44;5052643;28;19968;-84
2021/11/16 03:03:47;;;;;;;;;;;;;;;13.38;100.00;99778.63;5069051;28;20401;-84
2021/11/16 03:06:14;;;;;;;;;;;;;;;13.47;100.00;99783.72;5052430;28;19931;-84
2021/11/16 03:08:42;;;;;;;;;;;;;;;13.54;100.00;99772.38;5053443;28;20331;-84
2021/11/16 03:11:10;;;;;;;;;;;;;;;13.30;100.00;99767.97;5053668;28;19936;-84
2021/11/16 03:13:38;;;;;;;;;;;;;;;12.61;100.00;99763.72;5052168;28;19924;-84
2021/11/16 03:16:11;;;;;;;;;;;;;;;12.10;100.00;99777.16;5052401;28;19925;-83
2021/11/16 03:18:39;;;;;;;;;;;;;;;12.00;100.00;99772.44;5068847;28;19998;-83
2021/11/16 03:21:07;;;;;;;;;;;;;;;12.46;100.00;99773.50;5052170;28;20296;-83
2021/11/16 03:23:34;;;;;;;;;;;;;;;13.16;100.00;99768.19;5052154;28;20506;-84
2021/11/16 03:26:02;;;;;;;;;;;;;;;13.20;100.00;99768.91;5085362;28;19931;-84
2021/11/16 03:28:32;;;;;;;;;;;;;;;13.31;100.00;99755.50;5051925;28;19929;-84
2021/11/16 03:31:07;;;;;;;;;;;;;;;13.38;100.00;99750.56;5053277;28;20376;-84
2021/11/16 03:33:36;;;;;;;;;;;;;;;13.46;100.00;99754.06;5035681;28;20356;-84
2021/11/16 03:36:04;;;;;;;;;;;;;;;13.66;100.00;99743.69;5035549;28;19929;-84
2021/11/16 03:38:33;;;;;;;;;;;;;;;13.40;100.00;99741.72;5051973;28;19955;-84
2021/11/16 03:41:01;;;;;;;;;;;;;;;13.42;100.00;99742.88;5068719;28;19932;-84
2021/11/16 03:43:28;;;;;;;;;;;;;;;13.56;100.00;99741.84;5052839;28;19932;-84
2021/11/16 03:45:58;;;;;;;;;;;;;;;13.63;100.00;99733.31;5053233;28;19927;-84
2021/11/16 03:48:26;;;;;;;;;;;;;;;13.54;100.00;99738.69;5053026;28;20392;-84
2021/11/16 03:50:54;;;;;;;;;;;;;;;13.68;100.00;99728.00;5035307;28;19924;-84
2021/11/16 03:53:21;;;;;;;;;;;;;;;13.63;100.00;99734.09;5051988;28;19925;-84
2021/11/16 03:55:49;;;;;;;;;;;;;;;13.73;100.00;99729.50;5051736;28;20445;-84
2021/11/16 03:58:18;;;;;;;;;;;;;;;13.58;100.00;99719.75;5052838;28;19998;-84
2021/11/16 04:00:49;;;;;;;;;;;;;;;12.98;100.00;99720.69;5052998;28;19932;-84
2021/11/16 04:03:18;;;;;;;;;;;;;;;13.27;100.00;99729.53;5034978;28;19925;-84
2021/11/16 04:05:45;;;;;;;;;;;;;;;13.49;100.00;99722.31;5084632;28;20011;-84
2021/11/16 04:08:13;;;;;;;;;;;;;;;13.64;100.00;99718.03;5051494;28;19939;-84
2021/11/16 04:10:40;;;;;;;;;;;;;;;13.70;100.00;99711.50;5068364;28;19929;-84
2021/11/16 04:13:07;;;;;;;;;;;;;;;13.63;100.00;99717.22;5068178;28;20298;-84
2021/11/16 04:15:34;;;;;;;;;;;;;;;13.68;100.00;99711.13;5068340;28;19932;-84
2021/11/16 04:18:02;;;;;;;;;;;;;;;13.67;100.00;99711.56;5068289;28;20433;-84
2021/11/16 04:20:30;;;;;;;;;;;;;;;13.65;100.00;99702.75;5034947;28;19925;-84
2021/11/16 04:22:58;;;;;;;;;;;;;;;13.22;100.00;99701.94;5084978;28;19925;-84
2021/11/16 04:25:26;;;;;;;;;;;;;;;12.86;100.00;99700.88;5052792;28;19935;-84
2021/11/16 04:27:54;;;;;;;;;;;;;;;13.15;100.00;99696.41;5052427;28;19924;-84
2021/11/16 04:30:24;;;;;;;;;;;;;;;13.26;100.00;99694.25;5052561;28;19978;-84
2021/11/16 04:32:51;;;;;;;;;;;;;;;13.30;100.00;99692.19;5067892;28;19924;-84
2021/11/16 04:35:18;;;;;;;;;;;;;;;13.36;100.00;99693.28;5067790;28;19924;-84
2021/11/16 04:37:47;;;;;;;;;;;;;;;13.40;100.00;99682.78;5084757;28;19925;-84
2021/11/16 04:40:15;;;;;;;;;;;;;;;13.42;100.00;99685.97;5051634;28;19932;-84
2021/11/16 04:42:43;;;;;;;;;;;;;;;13.47;100.00;99689.06;5052355;28;19925;-84
2021/11/16 04:45:12;;;;;;;;;;;;;;;13.47;100.00;99683.44;5051311;28;19948;-84
2021/11/16 04:48:16;;;;;;;;;;;;;;;13.47;100.00;99679.84;5052477;28;20034;-84
2021/11/16 04:53:56;;;;;;;;;;;;;;;13.53;100.00;99683.72;5052439;28;19932;-84
2021/11/16 05:04:40;;;;;;;;;;;;;;;13.25;100.00;99689.84;5052330;28;19929;-84
2021/11/16 05:07:14;;;;;;;;;;;;;;;12.43;100.00;99693.06;5067373;28;19929;-84
2021/11/16 05:09:45;;;;;;;;;;;;;;;12.42;100.00;99694.28;5034321;28;19931;-84
2021/11/16 05:12:12;;;;;;;;;;;;;;;12.96;100.00;99697.09;5052222;28;19925;-84
2021/11/16 05:14:39;;;;;;;;;;;;;;;13.09;100.00;99682.09;5086003;28;20321;-84
2021/11/16 05:17:06;;;;;;;;;;;;;;;13.18;100.00;99681.53;5038322;28;19932;-84
2021/11/16 05:19:33;;;;;;;;;;;;;;;13.26;100.00;99688.63;5054547;28;19924;-83
2021/11/16 05:22:00;;;;;;;;;;;;;;;13.35;100.00;99680.44;5088032;28;19946;-84
2021/11/16 05:24:27;;;;;;;;;;;;;;;13.33;100.00;99685.72;5037960;28;19925;-84
2021/11/16 05:26:55;;;;;;;;;;;;;;;13.36;100.00;99687.66;5070998;28;19925;-84
2021/11/16 05:29:22;;;;;;;;;;;;;;;13.38;100.00;99679.59;5070723;28;19925;-84
2021/11/16 05:31:49;;;;;;;;;;;;;;;13.26;100.00;99671.78;5054457;28;20014;-84
2021/11/16 05:34:18;;;;;;;;;;;;;;;13.30;100.00;99678.16;5054369;28;20283;-84
2021/11/16 05:36:45;;;;;;;;;;;;;;;12.90;100.00;99691.19;5055581;28;20190;-84
2021/11/16 05:39:13;;;;;;;;;;;;;;;12.95;100.00;99687.13;5037408;28;19925;-84
2021/11/16 05:41:40;;;;;;;;;;;;;;;13.06;100.00;99687.75;5055352;28;19935;-84
2021/11/16 05:44:09;;;;;;;;;;;;;;;13.12;100.00;99686.03;5055405;28;19925;-84
2021/11/16 05:46:37;;;;;;;;;;;;;;;13.24;100.00;99677.06;5070418;28;19931;-84
2021/11/16 05:49:04;;;;;;;;;;;;;;;13.22;100.00;99673.88;5054055;28;19925;-84
2021/11/16 05:51:31;;;;;;;;;;;;;;;13.29;100.00;99673.75;5053954;28;20281;-84
2021/11/16 05:54:01;;;;;;;;;;;;;;;13.29;100.00;99673.75;5070255;28;19961;-84
2021/11/16 05:56:35;;;;;;;;;;;;;;;13.18;100.00;99673.13;5087525;28;20478;-84
2021/11/16 05:59:03;;;;;;;;;;;;;;;12.90;100.00;99679.19;5070479;28;19952;-84
2021/11/16 06:01:32;;;;;;;;;;;;;;;13.10;100.00;99677.28;5070344;28;19928;-84
2021/11/16 06:04:01;;;;;;;;;;;;;;;13.19;100.00;99675.50;5053848;28;20418;-84
2021/11/16 06:06:29;;;;;;;;;;;;;;;13.10;100.00;99666.06;5086878;28;19929;-84
2021/11/16 06:08:58;;;;;;;;;;;;;;;13.12;100.00;99658.78;5086618;28;19925;-84
2021/11/16 06:11:25;;;;;;;;;;;;;;;13.26;100.00;99664.16;5053608;28;19925;-84
2021/11/16 06:13:53;;;;;;;;;;;;;;;13.27;100.00;99654.53;5053577;28;19994;-84
2021/11/16 06:16:20;;;;;;;;;;;;;;;13.29;100.00;99654.09;5070030;28;19936;-84
2021/11/16 06:18:49;;;;;;;;;;;;;;;13.31;100.00;99655.28;5086619;28;19932;-83
2021/11/16 06:21:17;;;;;;;;;;;;;;;13.23;100.00;99653.81;5054534;28;19924;-84
2021/11/16 06:23:44;;;;;;;;;;;;;;;13.09;100.00;99659.66;5070019;28;19928;-84
2021/11/16 06:26:12;;;;;;;;;;;;;;;13.19;100.00;99652.28;5053480;28;19932;-84
2021/11/16 06:28:40;;;;;;;;;;;;;;;13.25;100.00;99647.75;5054430;28;19925;-84
2021/11/16 06:31:07;;;;;;;;;;;;;;;12.92;100.00;99648.69;5054349;28;20338;-84
2021/11/16 06:33:35;;;;;;;;;;;;;;;12.98;100.00;99641.38;5069524;28;20376;-84
2021/11/16 06:36:02;;;;;;;;;;;;;;;13.23;100.00;99644.59;5069840;28;20299;-84
2021/11/16 06:38:29;;;;;;;;;;;;;;;13.31;100.00;99637.63;5069583;28;19925;-84
2021/11/16 06:40:56;;;;;;;;;;;;;;;13.25;100.00;99633.72;5069744;28;19968;-84
2021/11/16 06:43:25;;;;;;;;;;;;;;;12.99;100.00;99637.34;5069396;28;20376;-84
2021/11/16 06:45:53;;;;;;;;;;;;;;;13.04;100.00;99620.84;5053879;28;19943;-84
2021/11/16 06:48:21;;;;;;;;;;;;;;;13.25;100.00;99622.50;5054112;28;19929;-84
2021/11/16 06:50:48;;;;;;;;;;;;;;;13.26;100.00;99624.09;5053897;28;19931;-84
2021/11/16 06:53:23;;;;;;;;;;;;;;;13.11;100.00;99626.34;5069407;28;19932;-84
2021/11/16 06:55:51;;;;;;;;;;;;;;;12.87;100.00;99623.94;5052767;28;19975;-83
2021/11/16 06:58:18;;;;;;;;;;;;;;;13.26;100.00;99619.28;5069075;28;19925;-84
2021/11/16 07:00:45;;;;;;;;;;;;;;;13.33;100.00;99618.34;5036412;28;20019;-83
2021/11/16 07:03:17;;;;;;;;;;;;;;;13.24;100.00;99615.31;5052902;28;19925;-84
2021/11/16 07:05:55;;;;;;;;;;;;;;;13.35;100.00;99604.66;5085526;28;20018;-84
2021/11/16 07:08:29;;;;;;;;;;;;;;;12.85;100.00;99603.91;5052378;28;19925;-84
2021/11/16 07:11:28;;;;;;;;;;;;;;;12.68;100.00;99603.00;5035755;28;20402;-84
2021/11/16 07:13:55;;;;;;;;;;;;;;;12.42;100.00;99610.19;5024439;28;20356;-84
2021/11/16 07:20:03;;;;;;;;;;;;;;;13.12;100.00;99618.72;5073633;28;19917;-84
2021/11/16 07:22:32;;;;;;;;;;;;;;;13.31;100.00;99609.56;5105739;28;20015;-84
2021/11/16 07:25:03;;;;;;;;;;;;;;;13.40;100.00;99596.56;5072113;28;19947;-84
2021/11/16 07:27:39;;;;;;;;;;;;;;;13.37;100.00;99603.03;5089076;28;19924;-84
2021/11/16 07:30:08;;;;;;;;;;;;;;;12.81;100.00;99608.81;5104010;28;20394;-84
2021/11/16 07:32:43;;;;;;;;;;;;;;;13.06;100.00;99609.19;5073189;28;19925;-84
2021/11/16 07:35:10;;;;;;;;;;;;;;;13.09;100.00;99605.53;5072085;28;19924;-84
2021/11/16 07:37:39;;;;;;;;;;;;;;;13.20;100.00;99597.72;5088505;28;19956;-84
2021/11/16 07:40:08;;;;;;;;;;;;;;;12.81;100.00;99603.19;5105858;28;20364;-84
2021/11/16 07:42:55;;;;;;;;;;;;;;;12.97;100.00;99606.91;5071759;28;19936;-84
2021/11/16 07:45:26;;;;;;;;;;;;;;;13.09;100.00;99597.13;5073059;28;20389;-84
2021/11/16 07:47:58;;;;;;;;;;;;;;;12.90;100.00;99601.44;5055287;28;20326;-83
2021/11/16 07:50:31;;;;;;;;;;;;;;;12.89;100.00;99599.84;5055187;28;19925;-83
2021/11/16 07:56:28;;;;;;;;;;;;;;;12.72;100.00;99600.94;5068440;28;19931;-83
2021/11/16 07:58:57;;;;;;;;;;;;;;;13.04;100.00;99600.44;5055172;28;20568;-84
2021/11/16 08:01:37;;;;;;;;;;;;;;;13.20;100.00;99603.34;5071710;28;19925;-84
2021/11/16 08:04:20;;;;;;;;;;;;;;;13.27;100.00;99597.63;5055104;28;20303;-83
2021/11/16 08:12:06;;;;;;;;;;;;;;;12.86;100.00;99597.13;5105104;28;19931;-83
2021/11/16 08:14:35;;;;;;;;;;;;;;;13.05;100.00;99602.81;5072827;28;19946;-83
2021/11/16 08:17:04;;;;;;;;;;;;;;;13.18;100.00;99603.78;5054981;28;20288;-83
2021/11/16 08:19:32;;;;;;;;;;;;;;;13.33;100.00;99604.31;5071364;28;19928;-83
2021/11/16 08:22:02;;;;;;;;;;;;;;;13.10;100.00;99598.72;5071589;28;19939;-83
2021/11/16 08:24:45;;;;;;;;;;;;;;;13.41;100.00;99588.91;5071675;28;19925;-84
2021/11/16 08:27:18;;;;;;;;;;;;;;;13.22;100.00;99595.31;5071504;28;19986;-84
2021/11/16 08:29:48;;;;;;;;;;;;;;;13.37;100.00;99596.63;5088386;28;19924;-84
2021/11/16 08:32:19;;;;;;;;;;;;;;;13.12;100.00;99594.25;5054650;28;19924;-83
2021/11/16 08:34:54;;;;;;;;;;;;;;;13.12;100.00;99580.22;5071503;28;19931;-84
2021/11/16 08:37:23;;;;;;;;;;;;;;;13.11;100.00;99583.47;5038361;28;19929;-83
2021/11/16 08:39:56;;;;;;;;;;;;;;;13.03;100.00;99593.22;5087916;28;19966;-84
2021/11/16 08:42:30;;;;;;;;;;;;;;;12.90;100.00;99586.63;5054581;28;19924;-83
2021/11/16 08:45:08;;;;;;;;;;;;;;;13.08;100.00;99589.94;5038167;28;19925;-84
2021/11/16 08:47:38;;;;;;;;;;;;;;;13.26;100.00;99594.00;5071101;28;19925;-83
2021/11/16 08:50:11;;;;;;;;;;;;;;;13.32;100.00;99588.69;5074888;28;19925;-84
2021/11/16 08:52:38;;;;;;;;;;;;;;;13.65;100.00;99582.03;5076352;28;19924;-84
2021/11/16 08:55:07;;;;;;;;;;;;;;;13.51;100.00;99574.69;5076182;28;19939;-84
2021/11/16 08:57:35;;;;;;;;;;;;;;;13.75;100.00;99567.00;5058523;28;19925;-84
2021/11/16 09:00:41;;;;;;;;;;;;;;;13.78;100.00;99566.91;5076119;28;19932;-84
2021/11/16 09:03:11;;;;;;;;;;;;;;;13.55;100.00;99560.56;5036910;28;20012;-84
2021/11/16 09:05:41;;;;;;;;;;;;;;;13.16;100.00;99552.13;4988006;28;19928;-83
2021/11/16 09:08:12;;;;;;;;;;;;;;;13.14;100.00;99563.78;5036816;28;19925;-83
2021/11/16 09:10:42;;;;;;;;;;;;;;;13.54;100.00;99556.19;5036903;28;20006;-84
2021/11/16 09:13:10;;;;;;;;;;;;;;;13.37;100.00;99546.09;5037062;28;19925;-83
2021/11/16 09:15:43;;;;;;;;;;;;;;;13.40;100.00;99545.25;5036833;28;19925;-84
2021/11/16 09:18:27;;;;;;;;;;;;;;;13.20;100.00;99541.63;5036793;28;19925;-84
2021/11/16 09:21:03;;;;;;;;;;;;;;;13.17;100.00;99545.28;5004191;28;19924;-83
2021/11/16 09:23:33;;;;;;;;;;;;;;;13.23;100.00;99551.97;5053338;28;20281;-83
2021/11/16 09:26:35;;;;;;;;;;;;;;;13.31;100.00;99545.03;5036743;28;19931;-83
2021/11/16 09:29:06;;;;;;;;;;;;;;;13.28;100.00;99540.25;5036677;28;19931;-83
2021/11/16 09:31:37;;;;;;;;;;;;;;;13.11;100.00;99539.38;5019756;28;19929;-83
2021/11/16 09:34:27;;;;;;;;;;;;;;;13.48;100.00;99546.69;5048598;28;19932;-84
2021/11/16 09:36:58;;;;;;;;;;;;;;;13.65;100.00;99540.72;5074204;28;19931;-83
2021/11/16 09:39:28;;;;;;;;;;;;;;;13.78;100.00;99526.81;5057788;28;19924;-83
2021/11/16 09:42:00;;;;;;;;;;;;;;;13.75;100.00;99522.06;5074229;28;19924;-83
2021/11/16 09:44:44;;;;;;;;;;;;;;;13.95;100.00;99520.00;5074350;28;19955;-83
2021/11/16 09:47:17;;;;;;;;;;;;;;;14.06;100.00;99520.53;5073804;28;20394;-83
2021/11/16 09:50:03;;;;;;;;;;;;;;;14.70;100.00;99509.38;5074031;28;19970;-84
2021/11/16 09:52:31;;;;;;;;;;;;;;;14.96;100.00;99522.38;5073941;28;19925;-84
2021/11/16 09:55:19;;;;;;;;;;;;;;;14.76;100.00;99516.06;5073967;28;19925;-83
2021/11/16 09:58:02;;;;;;;;;;;;;;;14.52;100.00;99509.81;5053963;28;19930;-84
2021/11/16 10:00:29;;;;;;;;;;;;;;;14.80;100.00;99505.50;5073390;28;19970;-83
2021/11/16 10:02:59;;;;;;;;;;;;;;;14.70;100.00;99502.97;5074841;28;19925;-83
2021/11/16 10:05:28;;;;;;;;;;;;;;;14.90;100.00;99501.63;5073701;28;19925;-84
2021/11/16 10:07:59;;;;;;;;;;;;;;;14.74;100.00;99498.06;5074648;28;19924;-83
2021/11/16 10:10:31;;;;;;;;;;;;;;;14.71;100.00;99510.19;5073454;28;19981;-83
2021/11/16 10:13:00;;;;;;;;;;;;;;;14.70;100.00;99509.38;5057119;28;19924;-83
2021/11/16 10:15:28;;;;;;;;;;;;;;;14.40;100.00;99501.31;5074578;28;19932;-83
2021/11/16 10:17:55;;;;;;;;;;;;;;;14.29;100.00;99506.38;5074748;28;19966;-83
2021/11/16 10:20:28;;;;;;;;;;;;;;;13.71;100.00;99487.63;5074597;28;20311;-83
2021/11/16 10:23:13;;;;;;;;;;;;;;;14.03;100.00;99501.75;5073795;28;20029;-83
2021/11/16 10:26:05;;;;;;;;;;;;;;;14.17;100.00;99498.63;5073383;28;19924;-83
2021/11/16 10:28:34;;;;;;;;;;;;;;;13.96;100.00;99487.88;5056338;28;20486;-83
2021/11/16 10:31:02;;;;;;;;;;;;;;;14.25;100.00;99492.41;5073133;28;19928;-83
2021/11/16 10:33:37;;;;;;;;;;;;;;;14.33;100.00;99484.59;5107139;28;19931;-83
2021/11/16 10:36:06;;;;;;;;;;;;;;;13.82;100.00;99482.56;5073369;28;19931;-83
2021/11/16 10:38:33;;;;;;;;;;;;;;;14.05;100.00;99486.06;5073082;28;20070;-83
2021/11/16 10:41:02;;;;;;;;;;;;;;;14.18;100.00;99481.31;5073091;28;19924;-84
2021/11/16 10:43:35;;;;;;;;;;;;;;;14.23;100.00;99472.41;5056324;28;19931;-83
2021/11/16 10:46:04;;;;;;;;;;;;;;;14.20;100.00;99476.06;5073286;28;19966;-83
2021/11/16 10:48:32;;;;;;;;;;;;;;;14.19;100.00;99468.84;5089811;28;19971;-83
2021/11/16 10:51:04;;;;;;;;;;;;;;;13.90;100.00;99469.97;5089704;28;19925;-83
2021/11/16 10:53:32;;;;;;;;;;;;;;;13.65;100.00;99475.31;5072787;28;20384;-83
2021/11/16 10:56:00;;;;;;;;;;;;;;;14.08;100.00;99465.50;5072725;28;19931;-83
2021/11/16 10:58:42;;;;;;;;;;;;;;;13.87;100.00;99465.22;5056332;28;19928;-83
2021/11/16 11:01:11;;;;;;;;;;;;;;;13.91;100.00;99451.88;5072797;28;19924;-83
2021/11/16 11:03:46;;;;;;;;;;;;;;;14.02;100.00;99446.78;5089475;28;20307;-83
2021/11/16 11:06:14;;;;;;;;;;;;;;;13.96;100.00;99446.53;5039361;28;19931;-83
2021/11/16 11:08:52;;;;;;;;;;;;;;;14.01;100.00;99442.41;5056038;28;19928;-83
2021/11/16 11:11:35;;;;;;;;;;;;;;;13.85;100.00;99439.56;5088556;28;19925;-83
2021/11/16 11:14:07;;;;;;;;;;;;;;;14.00;100.00;99435.19;5073687;28;19931;-83
2021/11/16 11:16:36;;;;;;;;;;;;;;;13.91;100.00;99435.00;5105894;28;19924;-83
2021/11/16 11:19:05;;;;;;;;;;;;;;;13.79;100.00;99433.69;5073464;28;20391;-83
2021/11/16 11:21:44;;;;;;;;;;;;;;;13.95;100.00;99428.06;5072404;28;19929;-84
2021/11/16 11:24:12;;;;;;;;;;;;;;;13.90;100.00;99417.34;5055990;28;19929;-83
2021/11/16 11:26:46;;;;;;;;;;;;;;;13.92;100.00;99420.53;5072247;28;19924;-83
2021/11/16 11:32:01;;;;;;;;;;;;;;;14.07;100.00;99412.56;5072070;28;19931;-84
2021/11/16 11:34:32;;;;;;;;;;;;;;;14.07;100.00;99410.53;5073304;28;19924;-84
2021/11/16 11:37:04;;;;;;;;;;;;;;;14.14;100.00;99410.38;5072096;28;20010;-84
2021/11/16 11:39:32;;;;;;;;;;;;;;;13.73;100.00;99407.34;5073349;28;19928;-83
2021/11/16 11:42:00;;;;;;;;;;;;;;;13.87;100.00;99406.22;5105378;28;20375;-83
2021/11/16 11:44:28;;;;;;;;;;;;;;;13.89;100.00;99398.13;5072118;28;19924;-83
2021/11/16 11:46:59;;;;;;;;;;;;;;;13.94;100.00;99400.44;5071898;28;20402;-83
2021/11/16 11:49:27;;;;;;;;;;;;;;;13.91;100.00;99395.69;5055470;28;19924;-83
2021/11/16 11:51:59;;;;;;;;;;;;;;;13.86;100.00;99394.19;5071802;28;19931;-83
2021/11/16 11:54:26;;;;;;;;;;;;;;;13.96;100.00;99392.34;5071865;28;19931;-83
2021/11/16 11:56:54;;;;;;;;;;;;;;;14.08;100.00;99398.06;5072917;28;19924;-83
2021/11/16 12:02:41;;;;;;;;;;;;;;;14.23;100.00;99390.06;5054951;28;19924;-83
2021/11/16 12:05:09;;;;;;;;;;;;;;;13.83;100.00;99385.84;5072882;28;19924;-83
2021/11/16 12:07:36;;;;;;;;;;;;;;;14.00;100.00;99393.84;5054782;28;19924;-84
2021/11/16 12:10:06;;;;;;;;;;;;;;;14.03;100.00;99386.56;5072785;28;19931;-84
2021/11/16 12:12:35;;;;;;;;;;;;;;;14.51;100.00;99382.97;5071584;28;19974;-84
2021/11/16 12:15:13;;;;;;;;;;;;;;;14.22;100.00;99382.88;5071631;28;19931;-84
2021/11/16 12:17:50;;;;;;;;;;;;;;;14.16;100.00;99379.03;5071703;28;20295;-83
2021/11/16 12:20:34;;;;;;;;;;;;;;;14.13;100.00;99382.72;5071750;28;19925;-84
2021/11/16 12:23:06;;;;;;;;;;;;;;;14.32;100.00;99367.78;5089167;28;19947;-84
2021/11/16 12:25:33;;;;;;;;;;;;;;;13.98;100.00;99362.59;5075612;28;19943;-84
2021/11/16 12:28:00;;;;;;;;;;;;;;;14.01;100.00;99372.94;5076899;28;20464;-83
2021/11/16 12:30:35;;;;;;;;;;;;;;;13.64;100.00;99358.63;5076826;28;19925;-83
2021/11/16 12:33:02;;;;;;;;;;;;;;;13.84;100.00;99373.41;5092211;28;20025;-83
2021/11/16 12:35:32;;;;;;;;;;;;;;;13.61;100.00;99370.72;5075476;28;19931;-83
2021/11/16 12:38:00;;;;;;;;;;;;;;;13.42;100.00;99361.13;5059038;28;19931;-83
2021/11/16 12:40:29;;;;;;;;;;;;;;;13.34;100.00;99368.16;5075249;28;19928;-83
2021/11/16 12:43:18;;;;;;;;;;;;;;;13.32;100.00;99364.19;5075480;28;19932;-83
2021/11/16 12:45:48;;;;;;;;;;;;;;;13.22;100.00;99356.78;5076598;28;19932;-83
2021/11/16 12:48:17;;;;;;;;;;;;;;;13.33;100.00;99362.97;5041958;28;20372;-83
2021/11/16 12:51:03;;;;;;;;;;;;;;;13.06;100.00;99351.91;5076310;28;19925;-83
2021/11/16 12:53:46;;;;;;;;;;;;;;;13.49;100.00;99352.56;5074933;28;20288;-83
2021/11/16 12:56:14;;;;;;;;;;;;;;;13.38;100.00;99352.00;5092038;28;20005;-83
2021/11/16 12:58:53;;;;;;;;;;;;;;;13.63;100.00;99357.81;5076244;28;19969;-83
2021/11/16 13:01:35;;;;;;;;;;;;;;;13.66;100.00;99344.94;5075012;28;20027;-83
2021/11/16 13:04:08;;;;;;;;;;;;;;;13.70;100.00;99352.06;5075034;28;19928;-83
2021/11/16 13:06:36;;;;;;;;;;;;;;;13.45;100.00;99346.22;5074833;28;20345;-83
2021/11/16 13:09:05;;;;;;;;;;;;;;;13.37;100.00;99338.41;5074719;28;19928;-83
2021/11/16 13:11:39;;;;;;;;;;;;;;;13.24;100.00;99341.09;5074516;28;19932;-83
2021/11/16 13:14:07;;;;;;;;;;;;;;;13.35;100.00;99329.63;5091596;28;19930;-83
2021/11/16 13:16:35;;;;;;;;;;;;;;;13.18;100.00;99330.81;5041419;28;19924;-83
2021/11/16 13:19:04;;;;;;;;;;;;;;;13.15;100.00;99328.88;5058169;28;19929;-83
2021/11/16 13:21:40;;;;;;;;;;;;;;;12.97;100.00;99320.81;5058194;28;20454;-83